createdAt,value
2023-02-06T00:00:55.881Z,5.90
2023-02-06T00:03:23.697Z,5.80
2023-02-06T00:06:01.241Z,5.90
2023-02-06T00:08:29.436Z,5.80
2023-02-06T00:10:57.274Z,5.70
2023-02-06T00:13:25.077Z,5.60
2023-02-06T00:15:52.924Z,5.40
2023-02-06T00:18:20.783Z,5.20
2023-02-06T00:20:48.610Z,5.20
2023-02-06T00:23:17.881Z,5.20
2023-02-06T00:25:45.925Z,5.10
2023-02-06T00:28:13.868Z,5.10
2023-02-06T00:30:41.710Z,5.00
2023-02-06T00:33:09.599Z,4.80
2023-02-06T00:35:37.590Z,4.80
2023-02-06T00:38:06.650Z,4.70
2023-02-06T00:40:35.799Z,4.70
2023-02-06T00:43:03.864Z,5.00
2023-02-06T00:45:31.852Z,5.00
2023-02-06T00:47:59.742Z,5.00
2023-02-06T00:50:27.868Z,5.10
2023-02-06T00:52:55.753Z,5.00
2023-02-06T00:55:23.580Z,5.00
2023-02-06T00:57:52.958Z,5.00
2023-02-06T01:00:21.109Z,5.00
2023-02-06T01:02:48.899Z,5.10
2023-02-06T01:05:16.732Z,5.20
2023-02-06T01:07:44.740Z,5.20
2023-02-06T01:10:13.479Z,5.40
2023-02-06T01:12:41.982Z,5.40
2023-02-06T01:15:13.309Z,5.60
2023-02-06T01:17:42.583Z,5.80
2023-02-06T01:20:13.710Z,6.00
2023-02-06T01:22:41.710Z,6.10
2023-02-06T01:25:09.955Z,6.20
2023-02-06T01:27:38.472Z,6.10
2023-02-06T01:30:08.098Z,6.10
2023-02-06T01:32:39.264Z,6.10
2023-02-06T01:35:08.589Z,5.90
2023-02-06T01:37:37.040Z,6.00
2023-02-06T01:40:05.320Z,5.80
2023-02-06T01:42:35.453Z,5.60
2023-02-06T01:45:35.721Z,5.50
2023-02-06T01:48:09.556Z,5.30
2023-02-06T01:50:40.425Z,5.40
2023-02-06T01:53:08.781Z,5.40
2023-02-06T01:55:40.354Z,5.50
2023-02-06T01:58:09.956Z,5.50
2023-02-06T02:00:38.156Z,5.50
2023-02-06T02:03:07.417Z,5.30
2023-02-06T02:06:00.012Z,5.40
2023-02-06T02:08:33.796Z,5.60
2023-02-06T02:11:04.184Z,5.60
2023-02-06T02:13:34.192Z,5.40
2023-02-06T02:16:06.772Z,5.40
2023-02-06T02:19:00.627Z,5.20
2023-02-06T02:21:48.494Z,5.30
2023-02-06T02:24:24.169Z,5.50
2023-02-06T02:27:10.461Z,5.70
2023-02-06T02:30:21.301Z,5.90
2023-02-06T02:33:28.698Z,6.10
2023-02-06T02:36:04.661Z,6.30
2023-02-06T02:38:44.380Z,6.50
2023-02-06T02:41:17.064Z,6.50
2023-02-06T02:43:48.428Z,6.60
2023-02-06T02:46:24.436Z,6.70
2023-02-06T02:48:55.936Z,6.70
2023-02-06T02:51:25.942Z,6.60
2023-02-06T02:53:53.780Z,6.60
2023-02-06T02:56:24.298Z,6.70
2023-02-06T02:58:56.038Z,6.70
2023-02-06T03:01:29.434Z,6.70
2023-02-06T03:04:02.060Z,6.60
2023-02-06T03:06:47.260Z,6.70
2023-02-06T03:09:23.285Z,6.60
2023-02-06T03:12:05.370Z,6.60
2023-02-06T03:14:41.353Z,6.60
2023-02-06T03:17:15.005Z,6.60
2023-02-06T03:19:48.395Z,6.70
2023-02-06T03:22:18.841Z,6.70
2023-02-06T03:24:48.101Z,6.60
2023-02-06T03:27:18.761Z,6.40
2023-02-06T03:29:50.063Z,6.40
2023-02-06T03:32:23.963Z,6.50
2023-02-06T03:34:59.652Z,6.40
2023-02-06T03:37:30.190Z,6.40
2023-02-06T03:40:00.431Z,6.20
2023-02-06T03:42:30.549Z,6.00
2023-02-06T03:45:02.589Z,6.10
2023-02-06T03:47:32.386Z,6.30
2023-02-06T03:50:01.980Z,6.40
2023-02-06T03:52:38.596Z,6.30
2023-02-06T03:55:10.929Z,6.30
2023-02-06T03:57:39.719Z,6.30
2023-02-06T04:00:08.677Z,6.40
2023-02-06T04:02:37.592Z,6.50
2023-02-06T04:05:06.119Z,6.40
2023-02-06T04:07:37.177Z,6.30
2023-02-06T04:10:05.659Z,6.10
2023-02-06T04:12:33.769Z,5.70
2023-02-06T04:15:01.587Z,5.70
2023-02-06T04:17:46.490Z,5.80
2023-02-06T04:20:17.372Z,5.90
2023-02-06T04:22:46.641Z,5.90
2023-02-06T04:25:14.949Z,6.00
2023-02-06T04:27:42.857Z,6.10
2023-02-06T04:30:12.006Z,6.30
2023-02-06T04:32:39.807Z,6.50
2023-02-06T04:35:08.002Z,6.60
2023-02-06T04:37:35.888Z,6.80
2023-02-06T04:40:05.501Z,6.60
2023-02-06T04:42:33.669Z,6.40
2023-02-06T04:45:01.467Z,6.50
2023-02-06T04:47:29.382Z,6.50
2023-02-06T04:49:57.210Z,6.60
2023-02-06T04:52:25.032Z,6.70
2023-02-06T04:54:52.834Z,6.70
2023-02-06T04:57:22.175Z,6.80
2023-02-06T04:59:49.951Z,6.80
2023-02-06T05:02:17.762Z,6.90
2023-02-06T05:04:45.723Z,6.80
2023-02-06T05:07:13.556Z,6.90
2023-02-06T05:09:41.362Z,7.00
2023-02-06T05:12:09.297Z,7.00
2023-02-06T05:14:38.451Z,7.00
2023-02-06T05:17:06.246Z,7.00
2023-02-06T05:19:34.064Z,7.00
2023-02-06T05:22:02.298Z,6.90
2023-02-06T05:24:30.345Z,6.90
2023-02-06T05:26:58.765Z,6.80
2023-02-06T05:29:27.093Z,6.90
2023-02-06T05:31:56.276Z,6.90
2023-02-06T05:34:24.177Z,6.80
2023-02-06T05:36:51.940Z,6.80
2023-02-06T05:39:19.756Z,6.70
2023-02-06T05:41:47.557Z,6.60
2023-02-06T05:44:15.387Z,6.50
2023-02-06T05:46:44.106Z,6.40
2023-02-06T05:49:13.291Z,6.40
2023-02-06T05:51:41.122Z,6.40
2023-02-06T05:54:08.972Z,6.40
2023-02-06T05:56:36.829Z,6.50
2023-02-06T05:59:04.634Z,6.60
2023-02-06T06:01:32.471Z,6.60
2023-02-06T06:04:00.763Z,6.60
2023-02-06T06:06:29.998Z,6.60
2023-02-06T06:08:57.837Z,6.70
2023-02-06T06:11:25.782Z,6.70
2023-02-06T06:13:53.574Z,6.80
2023-02-06T06:16:21.465Z,6.80
2023-02-06T06:18:49.364Z,6.80
2023-02-06T06:21:17.364Z,6.80
2023-02-06T06:23:46.562Z,6.80
2023-02-06T06:26:14.449Z,6.80
2023-02-06T06:28:42.881Z,6.80
2023-02-06T06:31:12.598Z,6.80
2023-02-06T06:33:40.848Z,6.80
2023-02-06T06:36:10.289Z,6.80
2023-02-06T06:38:38.420Z,6.80
2023-02-06T06:41:07.992Z,6.90
2023-02-06T06:43:35.899Z,6.80
2023-02-06T06:46:05.128Z,6.70
2023-02-06T06:48:33.474Z,6.70
2023-02-06T06:51:01.304Z,6.70
2023-02-06T06:53:29.296Z,6.70
2023-02-06T06:56:02.595Z,6.60
2023-02-06T06:58:31.791Z,6.60
2023-02-06T07:00:59.860Z,6.50
2023-02-06T07:03:27.806Z,6.50
2023-02-06T07:05:55.764Z,6.60
2023-02-06T07:08:23.700Z,6.80
2023-02-06T07:10:51.748Z,6.60
2023-02-06T07:13:19.549Z,6.40
2023-02-06T07:15:49.004Z,6.20
2023-02-06T07:18:16.840Z,5.80
2023-02-06T07:20:44.619Z,5.60
2023-02-06T07:23:12.426Z,5.40
2023-02-06T07:25:40.233Z,4.80
2023-02-06T07:28:08.175Z,4.50
2023-02-06T07:30:36.382Z,4.40
2023-02-06T07:33:07.160Z,4.30
2023-02-06T07:35:35.514Z,4.20
2023-02-06T07:38:03.531Z,4.10
2023-02-06T07:40:44.096Z,4.10
2023-02-06T07:43:12.859Z,4.10
2023-02-06T07:45:40.907Z,4.00
2023-02-06T07:48:10.161Z,3.90
2023-02-06T07:50:38.296Z,3.90
2023-02-06T07:53:06.264Z,3.90
2023-02-06T07:55:36.221Z,3.90
2023-02-06T07:58:04.271Z,4.00
2023-02-06T08:00:32.098Z,4.00
2023-02-06T08:03:00.581Z,4.10
2023-02-06T08:05:29.837Z,4.30
2023-02-06T08:07:58.247Z,4.20
2023-02-06T08:10:26.139Z,4.30
2023-02-06T08:12:53.978Z,4.40
2023-02-06T08:15:21.989Z,4.50
2023-02-06T08:17:49.881Z,4.60
2023-02-06T08:20:18.090Z,4.60
2023-02-06T08:22:47.492Z,4.60
2023-02-06T08:25:15.406Z,4.70
2023-02-06T08:27:43.360Z,4.60
2023-02-06T08:30:13.063Z,4.60
2023-02-06T08:32:40.998Z,4.60
2023-02-06T08:35:09.301Z,4.60
2023-02-06T08:37:37.145Z,4.70
2023-02-06T08:40:07.400Z,4.70
2023-02-06T08:42:35.946Z,4.70
2023-02-06T08:45:03.804Z,4.80
2023-02-06T08:47:32.019Z,4.80
2023-02-06T08:50:02.902Z,4.80
2023-02-06T08:52:31.444Z,4.80
2023-02-06T08:54:59.324Z,4.90
2023-02-06T08:57:28.462Z,4.90
2023-02-06T08:59:56.724Z,4.90
2023-02-06T09:02:24.636Z,4.90
2023-02-06T09:04:52.508Z,5.10
2023-02-06T09:07:21.669Z,5.10
2023-02-06T09:09:49.613Z,5.20
2023-02-06T09:12:17.646Z,5.10
2023-02-06T09:14:46.967Z,5.00
2023-02-06T09:17:14.786Z,4.90
2023-02-06T09:19:42.804Z,5.00
2023-02-06T09:22:10.918Z,5.00
2023-02-06T09:24:39.275Z,4.90
2023-02-06T09:27:07.110Z,4.80
2023-02-06T09:29:35.060Z,4.70
2023-02-06T09:32:04.384Z,4.70
2023-02-06T09:34:32.249Z,4.70
2023-02-06T09:37:03.105Z,5.00
2023-02-06T09:39:31.427Z,5.50
2023-02-06T09:42:05.745Z,5.80
2023-02-06T09:44:36.816Z,6.10
2023-02-06T09:47:13.390Z,6.50
2023-02-06T09:49:45.210Z,6.80
2023-02-06T09:52:27.763Z,6.80
2023-02-06T09:55:03.259Z,6.40
2023-02-06T09:57:39.961Z,6.00
2023-02-06T10:00:16.458Z,5.60
2023-02-06T10:03:03.387Z,5.30
2023-02-06T10:05:40.769Z,5.10
2023-02-06T10:08:17.686Z,5.10
2023-02-06T10:10:50.893Z,5.10
2023-02-06T10:13:24.980Z,4.80
2023-02-06T10:15:58.645Z,4.80
2023-02-06T10:18:32.960Z,4.60
2023-02-06T10:21:05.923Z,4.50
2023-02-06T10:23:40.912Z,4.50
2023-02-06T10:26:18.023Z,4.50
2023-02-06T10:28:49.980Z,4.70
2023-02-06T10:31:55.014Z,5.40
2023-02-06T10:34:40.860Z,6.20
2023-02-06T10:37:47.532Z,6.90
2023-02-06T10:40:28.621Z,7.60
2023-02-06T10:43:02.963Z,7.70
2023-02-06T10:45:43.258Z,7.50
2023-02-06T10:48:20.177Z,7.40
2023-02-06T10:50:55.115Z,7.70
2023-02-06T10:53:28.631Z,8.20
2023-02-06T10:56:00.299Z,8.80
2023-02-06T10:58:31.113Z,8.70
2023-02-06T11:01:01.101Z,8.80
2023-02-06T11:03:32.114Z,8.80
2023-02-06T11:06:03.753Z,9.00
2023-02-06T11:08:34.531Z,9.30
2023-02-06T11:11:18.667Z,9.50
2023-02-06T11:13:48.126Z,9.80
2023-02-06T11:16:22.103Z,10.00
2023-02-06T11:18:51.013Z,10.10
2023-02-06T11:21:53.498Z,10.30
2023-02-06T11:24:23.539Z,10.30
2023-02-06T11:26:55.084Z,10.50
2023-02-06T11:29:25.858Z,10.50
2023-02-06T11:31:56.825Z,10.50
2023-02-06T11:34:28.976Z,10.50
2023-02-06T11:37:01.039Z,10.80
2023-02-06T11:39:31.719Z,11.00
2023-02-06T11:42:02.671Z,10.90
2023-02-06T11:44:37.649Z,11.20
2023-02-06T11:47:29.430Z,11.10
2023-02-06T11:49:57.687Z,11.30
2023-02-06T11:52:32.384Z,11.40
2023-02-06T11:55:02.813Z,11.70
2023-02-06T11:57:33.655Z,12.00
2023-02-06T12:00:05.365Z,11.90
2023-02-06T12:02:35.902Z,12.00
2023-02-06T12:05:07.992Z,12.00
2023-02-06T12:07:40.449Z,11.90
2023-02-06T12:10:15.305Z,11.90
2023-02-06T12:12:46.308Z,12.00
2023-02-06T12:15:39.779Z,11.90
2023-02-06T12:18:07.715Z,11.90
2023-02-06T12:20:42.461Z,12.30
2023-02-06T12:23:19.288Z,12.30
2023-02-06T12:25:50.399Z,12.20
2023-02-06T12:28:23.569Z,12.60
2023-02-06T12:30:56.860Z,12.40
2023-02-06T12:33:33.938Z,12.60
2023-02-06T12:36:07.321Z,12.60
2023-02-06T12:38:44.177Z,12.60
2023-02-06T12:41:24.226Z,12.90
2023-02-06T12:43:58.231Z,12.80
2023-02-06T12:46:28.577Z,12.80
2023-02-06T12:49:03.302Z,13.00
2023-02-06T12:51:36.138Z,13.20
2023-02-06T12:54:12.341Z,12.90
2023-02-06T12:56:44.580Z,12.70
2023-02-06T12:59:34.513Z,12.30
2023-02-06T13:02:17.506Z,12.40
2023-02-06T13:04:46.001Z,12.30
2023-02-06T13:07:17.098Z,12.30
2023-02-06T13:09:52.745Z,12.40
2023-02-06T13:12:23.593Z,12.50
2023-02-06T13:14:54.150Z,12.50
2023-02-06T13:17:24.398Z,12.40
2023-02-06T13:20:11.018Z,12.10
2023-02-06T13:22:45.021Z,12.00
2023-02-06T13:25:50.065Z,11.50
2023-02-06T13:28:43.423Z,11.10
2023-02-06T13:31:27.745Z,10.60
2023-02-06T13:33:59.877Z,9.90
2023-02-06T13:36:43.033Z,9.50
2023-02-06T13:39:16.576Z,9.20
2023-02-06T13:41:45.755Z,8.70
2023-02-06T13:44:20.609Z,8.60
2023-02-06T13:47:22.804Z,8.50
2023-02-06T13:50:28.794Z,8.30
2023-02-06T13:53:27.177Z,8.00
2023-02-06T13:56:21.211Z,7.80
2023-02-06T13:58:52.338Z,7.80
2023-02-06T14:01:23.057Z,7.70
2023-02-06T14:03:52.207Z,7.70
2023-02-06T14:06:49.254Z,7.60
2023-02-06T14:09:42.485Z,7.40
2023-02-06T14:12:32.874Z,7.40
2023-02-06T14:15:24.420Z,7.40
2023-02-06T14:18:18.703Z,7.30
2023-02-06T14:20:56.590Z,7.40
2023-02-06T14:23:36.096Z,7.50
2023-02-06T14:26:18.554Z,7.50
2023-02-06T14:28:56.066Z,7.50
2023-02-06T14:31:39.448Z,7.50
2023-02-06T14:34:24.116Z,7.40
2023-02-06T14:37:22.158Z,7.40
2023-02-06T14:39:52.367Z,7.40
2023-02-06T14:42:25.026Z,7.30
2023-02-06T14:44:58.268Z,7.30
2023-02-06T14:47:30.164Z,7.40
2023-02-06T14:50:00.973Z,7.30
2023-02-06T14:52:33.126Z,7.30
2023-02-06T14:55:01.054Z,7.30
2023-02-06T14:57:31.757Z,7.30
2023-02-06T15:00:01.216Z,7.30
2023-02-06T15:02:33.580Z,7.20
2023-02-06T15:05:02.988Z,7.20
2023-02-06T15:07:33.226Z,7.20
2023-02-06T15:10:05.656Z,7.10
2023-02-06T15:12:34.681Z,7.00
2023-02-06T15:15:15.143Z,6.90
2023-02-06T15:17:44.604Z,6.80
2023-02-06T15:20:27.591Z,6.70
2023-02-06T15:23:07.998Z,6.70
2023-02-06T15:25:51.604Z,6.60
2023-02-06T15:28:21.838Z,6.60
2023-02-06T15:30:54.650Z,6.50
2023-02-06T15:33:27.595Z,6.50
2023-02-06T15:35:56.769Z,6.50
2023-02-06T15:38:26.542Z,6.50
2023-02-06T15:40:57.454Z,6.40
2023-02-06T15:43:27.401Z,6.40
2023-02-06T15:45:57.671Z,6.30
2023-02-06T15:48:36.116Z,6.20
2023-02-06T15:51:20.085Z,6.10
2023-02-06T15:53:49.468Z,6.10
2023-02-06T15:56:27.600Z,6.10
2023-02-06T15:58:59.202Z,6.20
2023-02-06T16:01:27.821Z,6.10
2023-02-06T16:04:03.275Z,6.00
2023-02-06T16:06:31.134Z,6.00
2023-02-06T16:09:02.756Z,5.90
2023-02-06T16:11:50.549Z,5.80
2023-02-06T16:14:28.690Z,5.80
2023-02-06T16:16:58.729Z,5.80
2023-02-06T16:19:46.283Z,5.80
2023-02-06T16:22:19.186Z,5.70
2023-02-06T16:24:48.766Z,5.70
2023-02-06T16:27:19.646Z,5.70
2023-02-06T16:29:50.707Z,5.60
2023-02-06T16:32:22.405Z,5.60
2023-02-06T16:34:52.445Z,5.60
2023-02-06T16:37:22.506Z,5.60
2023-02-06T16:39:50.591Z,5.50
2023-02-06T16:42:20.572Z,5.50
2023-02-06T16:44:50.820Z,5.50
2023-02-06T16:47:20.209Z,5.40
2023-02-06T16:49:49.509Z,5.40
2023-02-06T16:52:22.500Z,5.40
2023-02-06T16:54:50.843Z,5.40
2023-02-06T16:57:24.544Z,5.40
2023-02-06T16:59:52.928Z,5.30
2023-02-06T17:02:20.805Z,5.20
2023-02-06T17:04:49.173Z,5.20
2023-02-06T17:07:21.405Z,5.20
2023-02-06T17:09:50.458Z,5.10
2023-02-06T17:12:20.439Z,5.00
2023-02-06T17:14:48.920Z,5.00
2023-02-06T17:17:19.488Z,4.90
2023-02-06T17:19:48.040Z,4.90
2023-02-06T17:22:16.374Z,4.90
2023-02-06T17:24:45.967Z,4.80
2023-02-06T17:27:17.857Z,4.80
2023-02-06T17:29:47.565Z,4.70
2023-02-06T17:32:21.606Z,4.70
2023-02-06T17:34:50.484Z,4.60
2023-02-06T17:37:21.374Z,4.50
2023-02-06T17:39:52.002Z,4.50
2023-02-06T17:42:21.835Z,4.50
2023-02-06T17:44:49.802Z,4.40
2023-02-06T17:47:17.804Z,4.40
2023-02-06T17:49:46.564Z,4.30
2023-02-06T17:52:14.753Z,4.20
2023-02-06T17:54:42.573Z,4.20
2023-02-06T17:57:13.207Z,4.20
2023-02-06T17:59:41.206Z,4.20
2023-02-06T18:02:12.846Z,4.20
2023-02-06T18:04:40.717Z,4.20
2023-02-06T18:07:08.689Z,4.30
2023-02-06T18:09:36.649Z,4.30
2023-02-06T18:12:04.746Z,4.30
2023-02-06T18:14:35.274Z,4.30
2023-02-06T18:17:03.759Z,4.30
2023-02-06T18:19:31.840Z,4.30
2023-02-06T18:22:00.121Z,4.30
2023-02-06T18:24:28.074Z,4.20
2023-02-06T18:26:55.865Z,4.20
2023-02-06T18:29:23.669Z,4.20
2023-02-06T18:31:52.990Z,4.20
2023-02-06T18:34:22.576Z,4.30
2023-02-06T18:36:50.458Z,4.20
2023-02-06T18:39:18.480Z,4.20
2023-02-06T18:42:03.951Z,4.30
2023-02-06T18:44:31.998Z,4.30
2023-02-06T18:47:01.173Z,4.30
2023-02-06T18:49:28.987Z,4.30
2023-02-06T18:51:56.775Z,4.20
2023-02-06T18:54:24.549Z,4.20
2023-02-06T18:56:52.392Z,4.20
2023-02-06T18:59:20.244Z,4.10
2023-02-06T19:01:49.101Z,4.10
2023-02-06T19:04:18.476Z,4.00
2023-02-06T19:06:46.908Z,4.10
2023-02-06T19:09:15.501Z,4.00
2023-02-06T19:11:43.765Z,3.90
2023-02-06T19:14:15.163Z,3.80
2023-02-06T19:16:44.656Z,3.80
2023-02-06T19:19:13.300Z,3.80
2023-02-06T19:21:43.497Z,3.80
2023-02-06T19:24:12.870Z,3.80
2023-02-06T19:26:40.839Z,3.70
2023-02-06T19:29:09.650Z,3.70
2023-02-06T19:31:40.458Z,3.60
2023-02-06T19:34:08.400Z,3.50
2023-02-06T19:36:36.544Z,3.50
2023-02-06T19:39:09.192Z,3.40
2023-02-06T19:41:37.103Z,3.40
2023-02-06T19:44:08.025Z,3.30
2023-02-06T19:46:36.365Z,3.30
2023-02-06T19:49:06.280Z,3.30
2023-02-06T19:51:37.109Z,3.20
2023-02-06T19:54:06.592Z,3.20
2023-02-06T19:56:38.343Z,3.10
2023-02-06T19:59:08.801Z,3.10
2023-02-06T20:01:36.834Z,3.00
2023-02-06T20:04:04.734Z,2.90
2023-02-06T20:06:35.031Z,2.90
2023-02-06T20:09:04.985Z,2.90
2023-02-06T20:11:34.805Z,2.80
2023-02-06T20:14:02.844Z,2.80
2023-02-06T20:16:32.467Z,2.80
2023-02-06T20:19:00.440Z,2.70
2023-02-06T20:21:31.265Z,2.70
2023-02-06T20:24:02.901Z,2.70
2023-02-06T20:26:32.892Z,2.60
2023-02-06T20:29:02.619Z,2.60
2023-02-06T20:31:30.631Z,2.60
2023-02-06T20:33:59.129Z,2.50
2023-02-06T20:36:28.805Z,2.50
2023-02-06T20:38:58.608Z,2.40
2023-02-06T20:41:28.956Z,2.30
2023-02-06T20:43:57.610Z,2.30
2023-02-06T20:46:29.862Z,2.30
2023-02-06T20:48:59.269Z,2.20
2023-02-06T20:51:27.599Z,2.20
2023-02-06T20:53:56.149Z,2.20
2023-02-06T20:56:24.625Z,2.10
2023-02-06T20:58:52.652Z,2.10
2023-02-06T21:01:27.195Z,2.10
2023-02-06T21:03:59.508Z,2.10
2023-02-06T21:06:28.003Z,2.10
2023-02-06T21:09:00.088Z,2.10
2023-02-06T21:11:30.467Z,2.10
2023-02-06T21:13:59.389Z,2.20
2023-02-06T21:16:29.972Z,2.30
2023-02-06T21:18:59.276Z,2.30
2023-02-06T21:21:27.626Z,2.30
2023-02-06T21:23:56.554Z,2.20
2023-02-06T21:26:25.426Z,2.10
2023-02-06T21:28:53.735Z,2.10
2023-02-06T21:31:24.009Z,2.10
2023-02-06T21:33:53.519Z,2.00
2023-02-06T21:36:22.788Z,2.00
2023-02-06T21:38:50.621Z,2.00
2023-02-06T21:41:19.985Z,2.00
2023-02-06T21:43:47.995Z,2.00
2023-02-06T21:46:16.076Z,2.00
2023-02-06T21:48:43.995Z,2.00
2023-02-06T21:51:16.275Z,2.00
2023-02-06T21:53:45.666Z,2.00
2023-02-06T21:56:17.414Z,1.90
2023-02-06T21:58:45.860Z,1.90
2023-02-06T22:01:17.426Z,2.00
2023-02-06T22:03:45.660Z,2.00
2023-02-06T22:06:15.702Z,2.00
2023-02-06T22:08:47.914Z,2.00
2023-02-06T22:11:17.883Z,2.10
2023-02-06T22:13:47.859Z,2.10
2023-02-06T22:16:17.834Z,2.10
2023-02-06T22:18:46.180Z,2.10
2023-02-06T22:21:17.471Z,2.20
2023-02-06T22:23:46.453Z,2.10
2023-02-06T22:26:15.862Z,2.20
2023-02-06T22:28:44.240Z,2.20
2023-02-06T22:31:14.144Z,2.20
2023-02-06T22:33:42.254Z,2.20
2023-02-06T22:36:12.559Z,2.20
2023-02-06T22:38:43.046Z,2.20
2023-02-06T22:41:13.021Z,2.20
2023-02-06T22:43:41.083Z,2.20
2023-02-06T22:46:09.808Z,2.20
2023-02-06T22:48:37.858Z,2.20
2023-02-06T22:51:07.336Z,2.20
2023-02-06T22:53:35.885Z,2.10
2023-02-06T22:56:26.743Z,2.00
2023-02-06T22:58:55.056Z,2.00
2023-02-06T23:01:26.715Z,2.00
2023-02-06T23:03:55.421Z,2.10
2023-02-06T23:06:23.419Z,2.10
2023-02-06T23:08:51.643Z,2.10
2023-02-06T23:11:21.179Z,2.20
2023-02-06T23:13:52.709Z,2.10
2023-02-06T23:16:21.283Z,2.10
2023-02-06T23:18:49.215Z,2.20
2023-02-06T23:21:18.100Z,2.20
2023-02-06T23:23:45.950Z,2.30
2023-02-06T23:26:15.142Z,2.30
2023-02-06T23:28:44.413Z,2.30
2023-02-06T23:31:12.877Z,2.40
2023-02-06T23:33:41.005Z,2.30
2023-02-06T23:36:12.197Z,2.40
2023-02-06T23:38:40.965Z,2.40
2023-02-06T23:41:10.120Z,2.40
2023-02-06T23:43:38.878Z,2.40
2023-02-06T23:46:11.713Z,2.40
2023-02-06T23:48:40.122Z,2.40
2023-02-06T23:51:08.339Z,2.40
2023-02-06T23:53:36.306Z,2.40
2023-02-06T23:56:10.216Z,2.30
2023-02-06T23:58:38.025Z,2.30
